sensor_id;sensor_type;location;lat;lon;timestamp;P1;durP1;ratioP1;P2;durP2;ratioP2
20012;SDS011;76844;42.852;23.042;2024-03-06T00:02:12;44.08;;;22.77;;
20012;SDS011;76844;42.852;23.042;2024-03-06T00:04:41;36.90;;;20.27;;
20012;SDS011;76844;42.852;23.042;2024-03-06T00:07:12;44.17;;;23.88;;
20012;SDS011;76844;42.852;23.042;2024-03-06T00:09:42;50.10;;;26.33;;
20012;SDS011;76844;42.852;23.042;2024-03-06T00:12:12;37.92;;;21.23;;
20012;SDS011;76844;42.852;23.042;2024-03-06T00:14:41;38.05;;;19.38;;
20012;SDS011;76844;42.852;23.042;2024-03-06T00:17:11;43.53;;;22.80;;
20012;SDS011;76844;42.852;23.042;2024-03-06T00:19:40;39.17;;;19.95;;
20012;SDS011;76844;42.852;23.042;2024-03-06T00:22:10;35.15;;;19.00;;
20012;SDS011;76844;42.852;23.042;2024-03-06T00:24:44;33.45;;;18.08;;
20012;SDS011;76844;42.852;23.042;2024-03-06T00:27:13;32.67;;;17.10;;
20012;SDS011;76844;42.852;23.042;2024-03-06T00:29:43;28.80;;;16.05;;
20012;SDS011;76844;42.852;23.042;2024-03-06T00:32:12;30.60;;;17.05;;
20012;SDS011;76844;42.852;23.042;2024-03-06T00:34:42;32.42;;;17.40;;
20012;SDS011;76844;42.852;23.042;2024-03-06T00:37:11;32.70;;;18.08;;
20012;SDS011;76844;42.852;23.042;2024-03-06T00:39:41;29.67;;;17.08;;
20012;SDS011;76844;42.852;23.042;2024-03-06T00:42:12;36.20;;;18.40;;
20012;SDS011;76844;42.852;23.042;2024-03-06T00:44:41;37.60;;;18.45;;
20012;SDS011;76844;42.852;23.042;2024-03-06T00:47:10;29.80;;;15.95;;
20012;SDS011;76844;42.852;23.042;2024-03-06T00:49:40;35.85;;;19.13;;
20012;SDS011;76844;42.852;23.042;2024-03-06T00:52:10;31.40;;;17.20;;
20012;SDS011;76844;42.852;23.042;2024-03-06T00:54:40;28.20;;;15.25;;
20012;SDS011;76844;42.852;23.042;2024-03-06T00:57:09;25.83;;;14.85;;
20012;SDS011;76844;42.852;23.042;2024-03-06T00:59:40;30.98;;;19.15;;
20012;SDS011;76844;42.852;23.042;2024-03-06T01:02:09;28.13;;;14.70;;
20012;SDS011;76844;42.852;23.042;2024-03-06T01:04:39;27.70;;;15.70;;
20012;SDS011;76844;42.852;23.042;2024-03-06T01:07:09;30.77;;;16.50;;
20012;SDS011;76844;42.852;23.042;2024-03-06T01:09:38;28.42;;;16.00;;
20012;SDS011;76844;42.852;23.042;2024-03-06T01:12:08;29.88;;;17.10;;
20012;SDS011;76844;42.852;23.042;2024-03-06T01:14:39;31.70;;;17.20;;
20012;SDS011;76844;42.852;23.042;2024-03-06T01:17:09;28.48;;;15.77;;
20012;SDS011;76844;42.852;23.042;2024-03-06T01:19:39;31.27;;;17.27;;
20012;SDS011;76844;42.852;23.042;2024-03-06T01:22:10;29.58;;;16.13;;
20012;SDS011;76844;42.852;23.042;2024-03-06T01:24:40;36.55;;;19.02;;
20012;SDS011;76844;42.852;23.042;2024-03-06T01:27:10;28.27;;;15.57;;
20012;SDS011;76844;42.852;23.042;2024-03-06T01:29:41;28.05;;;15.50;;
20012;SDS011;76844;42.852;23.042;2024-03-06T01:32:10;24.88;;;15.05;;
20012;SDS011;76844;42.852;23.042;2024-03-06T01:34:40;31.80;;;17.08;;
20012;SDS011;76844;42.852;23.042;2024-03-06T01:37:09;29.88;;;16.10;;
20012;SDS011;76844;42.852;23.042;2024-03-06T01:39:39;26.30;;;15.15;;
20012;SDS011;76844;42.852;23.042;2024-03-06T01:42:09;28.15;;;14.95;;
20012;SDS011;76844;42.852;23.042;2024-03-06T01:44:38;22.67;;;13.88;;
20012;SDS011;76844;42.852;23.042;2024-03-06T01:47:09;22.67;;;13.50;;
20012;SDS011;76844;42.852;23.042;2024-03-06T01:49:39;25.65;;;14.20;;
20012;SDS011;76844;42.852;23.042;2024-03-06T01:52:12;28.52;;;16.00;;
20012;SDS011;76844;42.852;23.042;2024-03-06T01:54:43;32.50;;;16.58;;
20012;SDS011;76844;42.852;23.042;2024-03-06T01:57:14;30.27;;;17.38;;
20012;SDS011;76844;42.852;23.042;2024-03-06T01:59:47;32.03;;;16.25;;
20012;SDS011;76844;42.852;23.042;2024-03-06T02:02:17;25.55;;;14.20;;
20012;SDS011;76844;42.852;23.042;2024-03-06T02:04:47;26.48;;;15.88;;
20012;SDS011;76844;42.852;23.042;2024-03-06T02:07:16;26.50;;;15.25;;
20012;SDS011;76844;42.852;23.042;2024-03-06T02:09:47;28.75;;;15.50;;
20012;SDS011;76844;42.852;23.042;2024-03-06T02:12:17;26.92;;;14.95;;
20012;SDS011;76844;42.852;23.042;2024-03-06T02:14:48;23.88;;;12.57;;
20012;SDS011;76844;42.852;23.042;2024-03-06T02:17:18;25.02;;;12.75;;
20012;SDS011;76844;42.852;23.042;2024-03-06T02:19:47;23.42;;;12.93;;
20012;SDS011;76844;42.852;23.042;2024-03-06T02:22:18;23.77;;;14.32;;
20012;SDS011;76844;42.852;23.042;2024-03-06T02:24:48;21.48;;;11.73;;
20012;SDS011;76844;42.852;23.042;2024-03-06T02:27:17;19.55;;;11.75;;
20012;SDS011;76844;42.852;23.042;2024-03-06T02:29:47;24.35;;;13.27;;
20012;SDS011;76844;42.852;23.042;2024-03-06T02:32:16;23.77;;;13.63;;
20012;SDS011;76844;42.852;23.042;2024-03-06T02:34:46;22.60;;;13.13;;
20012;SDS011;76844;42.852;23.042;2024-03-06T02:37:15;23.45;;;12.32;;
20012;SDS011;76844;42.852;23.042;2024-03-06T02:39:46;26.45;;;14.60;;
20012;SDS011;76844;42.852;23.042;2024-03-06T02:42:16;25.77;;;14.48;;
20012;SDS011;76844;42.852;23.042;2024-03-06T02:44:45;26.30;;;14.52;;
20012;SDS011;76844;42.852;23.042;2024-03-06T02:47:15;26.40;;;14.38;;
20012;SDS011;76844;42.852;23.042;2024-03-06T02:49:44;28.63;;;16.65;;
20012;SDS011;76844;42.852;23.042;2024-03-06T02:52:13;27.02;;;14.90;;
20012;SDS011;76844;42.852;23.042;2024-03-06T02:54:45;29.58;;;14.73;;
20012;SDS011;76844;42.852;23.042;2024-03-06T02:57:14;24.88;;;13.80;;
20012;SDS011;76844;42.852;23.042;2024-03-06T02:59:44;27.73;;;14.68;;
20012;SDS011;76844;42.852;23.042;2024-03-06T03:02:13;25.80;;;13.63;;
20012;SDS011;76844;42.852;23.042;2024-03-06T03:04:43;26.20;;;14.98;;
20012;SDS011;76844;42.852;23.042;2024-03-06T03:07:12;25.52;;;14.02;;
20012;SDS011;76844;42.852;23.042;2024-03-06T03:09:42;24.35;;;13.05;;
20012;SDS011;76844;42.852;23.042;2024-03-06T03:12:13;23.02;;;13.50;;
20012;SDS011;76844;42.852;23.042;2024-03-06T03:14:42;30.65;;;16.38;;
20012;SDS011;76844;42.852;23.042;2024-03-06T03:17:12;28.08;;;14.73;;
20012;SDS011;76844;42.852;23.042;2024-03-06T03:19:42;25.70;;;13.40;;
20012;SDS011;76844;42.852;23.042;2024-03-06T03:22:12;25.80;;;14.52;;
20012;SDS011;76844;42.852;23.042;2024-03-06T03:24:41;25.30;;;13.10;;
20012;SDS011;76844;42.852;23.042;2024-03-06T03:27:12;24.52;;;13.35;;
20012;SDS011;76844;42.852;23.042;2024-03-06T03:29:42;23.55;;;13.10;;
20012;SDS011;76844;42.852;23.042;2024-03-06T03:32:11;27.80;;;14.35;;
20012;SDS011;76844;42.852;23.042;2024-03-06T03:34:43;23.30;;;12.90;;
20012;SDS011;76844;42.852;23.042;2024-03-06T03:37:12;24.23;;;14.18;;
20012;SDS011;76844;42.852;23.042;2024-03-06T03:39:43;35.83;;;20.02;;
20012;SDS011;76844;42.852;23.042;2024-03-06T03:42:14;28.50;;;15.80;;
20012;SDS011;76844;42.852;23.042;2024-03-06T03:44:44;27.95;;;15.18;;
20012;SDS011;76844;42.852;23.042;2024-03-06T03:47:14;28.70;;;15.07;;
20012;SDS011;76844;42.852;23.042;2024-03-06T03:49:44;28.80;;;16.05;;
20012;SDS011;76844;42.852;23.042;2024-03-06T03:52:32;27.05;;;14.75;;
20012;SDS011;76844;42.852;23.042;2024-03-06T03:55:02;27.52;;;14.43;;
20012;SDS011;76844;42.852;23.042;2024-03-06T03:57:33;25.45;;;14.48;;
20012;SDS011;76844;42.852;23.042;2024-03-06T04:00:03;27.77;;;15.57;;
20012;SDS011;76844;42.852;23.042;2024-03-06T04:02:39;25.92;;;14.63;;
20012;SDS011;76844;42.852;23.042;2024-03-06T04:05:08;25.35;;;13.88;;
20012;SDS011;76844;42.852;23.042;2024-03-06T04:07:38;27.10;;;15.88;;
20012;SDS011;76844;42.852;23.042;2024-03-06T04:10:08;28.42;;;15.05;;
20012;SDS011;76844;42.852;23.042;2024-03-06T04:12:40;26.63;;;13.85;;
20012;SDS011;76844;42.852;23.042;2024-03-06T04:15:10;26.77;;;14.13;;
20012;SDS011;76844;42.852;23.042;2024-03-06T04:17:39;25.58;;;14.35;;
20012;SDS011;76844;42.852;23.042;2024-03-06T04:20:09;24.88;;;13.85;;
20012;SDS011;76844;42.852;23.042;2024-03-06T04:22:40;24.60;;;12.90;;
20012;SDS011;76844;42.852;23.042;2024-03-06T04:25:10;25.35;;;13.57;;
20012;SDS011;76844;42.852;23.042;2024-03-06T04:27:40;27.40;;;14.40;;
20012;SDS011;76844;42.852;23.042;2024-03-06T04:30:10;34.38;;;18.27;;
20012;SDS011;76844;42.852;23.042;2024-03-06T04:32:40;31.67;;;17.63;;
20012;SDS011;76844;42.852;23.042;2024-03-06T04:35:10;31.95;;;16.70;;
20012;SDS011;76844;42.852;23.042;2024-03-06T04:37:40;33.17;;;17.52;;
20012;SDS011;76844;42.852;23.042;2024-03-06T04:40:11;38.90;;;18.85;;
20012;SDS011;76844;42.852;23.042;2024-03-06T04:42:46;34.58;;;18.33;;
20012;SDS011;76844;42.852;23.042;2024-03-06T04:45:16;29.60;;;16.77;;
20012;SDS011;76844;42.852;23.042;2024-03-06T04:47:46;29.42;;;15.88;;
20012;SDS011;76844;42.852;23.042;2024-03-06T04:50:15;29.92;;;15.82;;
20012;SDS011;76844;42.852;23.042;2024-03-06T04:52:45;31.00;;;18.08;;
20012;SDS011;76844;42.852;23.042;2024-03-06T04:55:14;26.35;;;14.80;;
20012;SDS011;76844;42.852;23.042;2024-03-06T04:57:49;28.73;;;15.30;;
20012;SDS011;76844;42.852;23.042;2024-03-06T05:00:19;36.17;;;17.58;;
20012;SDS011;76844;42.852;23.042;2024-03-06T05:02:48;35.63;;;18.20;;
20012;SDS011;76844;42.852;23.042;2024-03-06T05:05:35;32.60;;;17.92;;
20012;SDS011;76844;42.852;23.042;2024-03-06T05:08:22;30.48;;;16.98;;
20012;SDS011;76844;42.852;23.042;2024-03-06T05:11:09;34.13;;;17.52;;
20012;SDS011;76844;42.852;23.042;2024-03-06T05:13:59;27.20;;;14.93;;
20012;SDS011;76844;42.852;23.042;2024-03-06T05:16:45;23.13;;;13.63;;
20012;SDS011;76844;42.852;23.042;2024-03-06T05:19:32;24.58;;;14.98;;
20012;SDS011;76844;42.852;23.042;2024-03-06T05:22:19;28.15;;;16.35;;
20012;SDS011;76844;42.852;23.042;2024-03-06T05:25:06;30.92;;;17.50;;
20012;SDS011;76844;42.852;23.042;2024-03-06T05:27:53;31.90;;;18.00;;
20012;SDS011;76844;42.852;23.042;2024-03-06T05:30:41;26.27;;;15.20;;
20012;SDS011;76844;42.852;23.042;2024-03-06T05:33:35;25.48;;;14.68;;
20012;SDS011;76844;42.852;23.042;2024-03-06T05:36:22;26.95;;;15.43;;
20012;SDS011;76844;42.852;23.042;2024-03-06T05:39:09;27.42;;;15.55;;
20012;SDS011;76844;42.852;23.042;2024-03-06T05:41:59;27.85;;;15.65;;
20012;SDS011;76844;42.852;23.042;2024-03-06T05:44:48;28.42;;;17.50;;
20012;SDS011;76844;42.852;23.042;2024-03-06T05:47:39;27.75;;;16.50;;
20012;SDS011;76844;42.852;23.042;2024-03-06T05:50:26;31.90;;;18.38;;
20012;SDS011;76844;42.852;23.042;2024-03-06T05:53:13;34.17;;;18.55;;
20012;SDS011;76844;42.852;23.042;2024-03-06T05:56:00;35.88;;;18.27;;
20012;SDS011;76844;42.852;23.042;2024-03-06T05:58:46;36.80;;;19.80;;
20012;SDS011;76844;42.852;23.042;2024-03-06T06:01:16;37.95;;;21.95;;
20012;SDS011;76844;42.852;23.042;2024-03-06T06:03:49;44.35;;;26.05;;
20012;SDS011;76844;42.852;23.042;2024-03-06T06:06:18;45.72;;;26.35;;
20012;SDS011;76844;42.852;23.042;2024-03-06T06:08:48;42.13;;;26.33;;
20012;SDS011;76844;42.852;23.042;2024-03-06T06:11:17;43.72;;;24.55;;
20012;SDS011;76844;42.852;23.042;2024-03-06T06:13:47;43.33;;;24.30;;
20012;SDS011;76844;42.852;23.042;2024-03-06T06:16:16;41.65;;;21.25;;
20012;SDS011;76844;42.852;23.042;2024-03-06T06:18:45;39.50;;;21.95;;
20012;SDS011;76844;42.852;23.042;2024-03-06T06:21:17;34.47;;;18.77;;
20012;SDS011;76844;42.852;23.042;2024-03-06T06:23:46;43.30;;;21.85;;
20012;SDS011;76844;42.852;23.042;2024-03-06T06:26:16;33.95;;;19.85;;
20012;SDS011;76844;42.852;23.042;2024-03-06T06:28:45;44.40;;;27.75;;
20012;SDS011;76844;42.852;23.042;2024-03-06T06:31:15;63.08;;;38.55;;
20012;SDS011;76844;42.852;23.042;2024-03-06T06:33:44;60.67;;;39.05;;
20012;SDS011;76844;42.852;23.042;2024-03-06T06:36:14;53.13;;;32.13;;
20012;SDS011;76844;42.852;23.042;2024-03-06T06:38:45;42.85;;;25.73;;
20012;SDS011;76844;42.852;23.042;2024-03-06T06:41:15;45.33;;;26.23;;
20012;SDS011;76844;42.852;23.042;2024-03-06T06:43:46;40.08;;;25.52;;
20012;SDS011;76844;42.852;23.042;2024-03-06T06:46:18;43.83;;;27.47;;
20012;SDS011;76844;42.852;23.042;2024-03-06T06:48:48;51.50;;;33.13;;
20012;SDS011;76844;42.852;23.042;2024-03-06T06:51:20;64.63;;;37.83;;
20012;SDS011;76844;42.852;23.042;2024-03-06T06:53:50;51.97;;;35.85;;
20012;SDS011;76844;42.852;23.042;2024-03-06T06:56:23;59.33;;;37.45;;
20012;SDS011;76844;42.852;23.042;2024-03-06T06:58:53;41.55;;;25.40;;
20012;SDS011;76844;42.852;23.042;2024-03-06T07:01:23;32.75;;;21.75;;
20012;SDS011;76844;42.852;23.042;2024-03-06T07:03:54;29.55;;;18.13;;
20012;SDS011;76844;42.852;23.042;2024-03-06T07:06:26;28.65;;;17.65;;
20012;SDS011;76844;42.852;23.042;2024-03-06T07:08:55;29.10;;;18.05;;
20012;SDS011;76844;42.852;23.042;2024-03-06T07:11:24;27.00;;;17.77;;
20012;SDS011;76844;42.852;23.042;2024-03-06T07:13:54;42.53;;;28.52;;
20012;SDS011;76844;42.852;23.042;2024-03-06T07:16:23;57.20;;;35.92;;
20012;SDS011;76844;42.852;23.042;2024-03-06T07:18:53;65.60;;;42.25;;
20012;SDS011;76844;42.852;23.042;2024-03-06T07:21:22;54.03;;;35.78;;
20012;SDS011;76844;42.852;23.042;2024-03-06T07:23:53;61.50;;;38.20;;
20012;SDS011;76844;42.852;23.042;2024-03-06T07:26:23;52.30;;;33.28;;
20012;SDS011;76844;42.852;23.042;2024-03-06T07:28:53;45.90;;;29.80;;
20012;SDS011;76844;42.852;23.042;2024-03-06T07:31:22;42.70;;;26.50;;
20012;SDS011;76844;42.852;23.042;2024-03-06T07:33:51;41.25;;;25.30;;
20012;SDS011;76844;42.852;23.042;2024-03-06T07:36:21;38.63;;;24.23;;
20012;SDS011;76844;42.852;23.042;2024-03-06T07:38:50;45.20;;;24.58;;
20012;SDS011;76844;42.852;23.042;2024-03-06T07:41:22;39.88;;;25.95;;
20012;SDS011;76844;42.852;23.042;2024-03-06T07:43:51;69.90;;;49.05;;
20012;SDS011;76844;42.852;23.042;2024-03-06T07:46:20;56.85;;;36.85;;
20012;SDS011;76844;42.852;23.042;2024-03-06T07:48:50;34.22;;;22.08;;
20012;SDS011;76844;42.852;23.042;2024-03-06T07:51:19;28.33;;;19.90;;
20012;SDS011;76844;42.852;23.042;2024-03-06T07:53:48;27.20;;;19.08;;
20012;SDS011;76844;42.852;23.042;2024-03-06T07:56:19;32.50;;;21.38;;
20012;SDS011;76844;42.852;23.042;2024-03-06T07:58:49;28.25;;;18.02;;
20012;SDS011;76844;42.852;23.042;2024-03-06T08:01:18;24.38;;;17.88;;
20012;SDS011;76844;42.852;23.042;2024-03-06T08:03:48;31.23;;;18.20;;
20012;SDS011;76844;42.852;23.042;2024-03-06T08:06:18;35.63;;;20.27;;
20012;SDS011;76844;42.852;23.042;2024-03-06T08:08:47;27.83;;;16.77;;
20012;SDS011;76844;42.852;23.042;2024-03-06T08:11:17;25.98;;;16.38;;
20012;SDS011;76844;42.852;23.042;2024-03-06T08:13:56;31.43;;;18.93;;
20012;SDS011;76844;42.852;23.042;2024-03-06T08:16:27;33.38;;;17.95;;
20012;SDS011;76844;42.852;23.042;2024-03-06T08:19:01;29.27;;;17.30;;
20012;SDS011;76844;42.852;23.042;2024-03-06T08:21:31;24.30;;;15.38;;
20012;SDS011;76844;42.852;23.042;2024-03-06T08:24:00;28.25;;;16.63;;
20012;SDS011;76844;42.852;23.042;2024-03-06T08:26:30;25.48;;;15.63;;
20012;SDS011;76844;42.852;23.042;2024-03-06T08:29:01;26.88;;;15.60;;
20012;SDS011;76844;42.852;23.042;2024-03-06T08:31:30;24.45;;;15.88;;
20012;SDS011;76844;42.852;23.042;2024-03-06T08:34:00;23.75;;;15.73;;
20012;SDS011;76844;42.852;23.042;2024-03-06T08:36:30;14.50;;;10.93;;
20012;SDS011;76844;42.852;23.042;2024-03-06T08:38:59;26.15;;;15.48;;
20012;SDS011;76844;42.852;23.042;2024-03-06T08:41:28;25.13;;;13.02;;
20012;SDS011;76844;42.852;23.042;2024-03-06T08:43:58;23.00;;;14.73;;
20012;SDS011;76844;42.852;23.042;2024-03-06T08:46:30;17.73;;;12.15;;
20012;SDS011;76844;42.852;23.042;2024-03-06T08:49:00;19.17;;;12.85;;
20012;SDS011;76844;42.852;23.042;2024-03-06T08:51:34;16.90;;;10.90;;
20012;SDS011;76844;42.852;23.042;2024-03-06T08:54:04;16.40;;;12.05;;
20012;SDS011;76844;42.852;23.042;2024-03-06T08:56:38;16.02;;;11.13;;
20012;SDS011;76844;42.852;23.042;2024-03-06T08:59:09;18.92;;;12.90;;
20012;SDS011;76844;42.852;23.042;2024-03-06T09:01:38;14.68;;;10.50;;
20012;SDS011;76844;42.852;23.042;2024-03-06T09:04:10;19.73;;;12.02;;
20012;SDS011;76844;42.852;23.042;2024-03-06T09:06:39;19.08;;;12.10;;
20012;SDS011;76844;42.852;23.042;2024-03-06T09:09:09;20.10;;;11.23;;
20012;SDS011;76844;42.852;23.042;2024-03-06T09:14:12;16.88;;;10.98;;
20012;SDS011;76844;42.852;23.042;2024-03-06T09:16:42;20.95;;;12.23;;
20012;SDS011;76844;42.852;23.042;2024-03-06T09:19:11;23.65;;;11.18;;
20012;SDS011;76844;42.852;23.042;2024-03-06T09:21:45;29.42;;;12.32;;
20012;SDS011;76844;42.852;23.042;2024-03-06T09:24:15;18.42;;;11.02;;
20012;SDS011;76844;42.852;23.042;2024-03-06T09:26:44;22.23;;;13.00;;
20012;SDS011;76844;42.852;23.042;2024-03-06T09:29:15;18.08;;;11.60;;
20012;SDS011;76844;42.852;23.042;2024-03-06T09:31:45;19.52;;;10.85;;
20012;SDS011;76844;42.852;23.042;2024-03-06T09:34:16;20.23;;;12.32;;
20012;SDS011;76844;42.852;23.042;2024-03-06T09:36:46;18.42;;;12.30;;
20012;SDS011;76844;42.852;23.042;2024-03-06T09:39:17;18.33;;;10.73;;
20012;SDS011;76844;42.852;23.042;2024-03-06T09:41:48;26.08;;;11.93;;
20012;SDS011;76844;42.852;23.042;2024-03-06T09:44:19;21.58;;;10.75;;
20012;SDS011;76844;42.852;23.042;2024-03-06T09:46:49;16.40;;;11.43;;
20012;SDS011;76844;42.852;23.042;2024-03-06T09:49:19;19.85;;;10.93;;
20012;SDS011;76844;42.852;23.042;2024-03-06T09:51:49;13.45;;;10.57;;
20012;SDS011;76844;42.852;23.042;2024-03-06T09:54:19;20.35;;;10.18;;
20012;SDS011;76844;42.852;23.042;2024-03-06T09:56:51;19.80;;;10.07;;
20012;SDS011;76844;42.852;23.042;2024-03-06T09:59:24;19.88;;;11.38;;
20012;SDS011;76844;42.852;23.042;2024-03-06T10:01:55;24.83;;;11.80;;
20012;SDS011;76844;42.852;23.042;2024-03-06T10:04:26;18.25;;;11.45;;
20012;SDS011;76844;42.852;23.042;2024-03-06T10:06:56;18.45;;;10.43;;
20012;SDS011;76844;42.852;23.042;2024-03-06T10:09:27;16.27;;;10.05;;
20012;SDS011;76844;42.852;23.042;2024-03-06T10:11:58;17.52;;;9.63;;
20012;SDS011;76844;42.852;23.042;2024-03-06T10:14:34;21.92;;;11.20;;
20012;SDS011;76844;42.852;23.042;2024-03-06T10:17:05;17.77;;;10.10;;
20012;SDS011;76844;42.852;23.042;2024-03-06T10:19:34;32.53;;;11.23;;
20012;SDS011;76844;42.852;23.042;2024-03-06T10:22:06;14.80;;;8.80;;
20012;SDS011;76844;42.852;23.042;2024-03-06T10:24:37;16.52;;;10.15;;
20012;SDS011;76844;42.852;23.042;2024-03-06T10:27:13;16.05;;;9.80;;
20012;SDS011;76844;42.852;23.042;2024-03-06T10:29:45;19.15;;;8.98;;
20012;SDS011;76844;42.852;23.042;2024-03-06T10:32:16;14.82;;;7.53;;
20012;SDS011;76844;42.852;23.042;2024-03-06T10:34:48;13.82;;;6.90;;
20012;SDS011;76844;42.852;23.042;2024-03-06T10:37:19;16.55;;;8.63;;
20012;SDS011;76844;42.852;23.042;2024-03-06T10:39:49;22.60;;;8.15;;
20012;SDS011;76844;42.852;23.042;2024-03-06T10:42:23;8.45;;;5.85;;
20012;SDS011;76844;42.852;23.042;2024-03-06T10:44:59;12.75;;;7.10;;
20012;SDS011;76844;42.852;23.042;2024-03-06T10:47:31;10.18;;;6.57;;
20012;SDS011;76844;42.852;23.042;2024-03-06T10:50:02;9.60;;;6.38;;
20012;SDS011;76844;42.852;23.042;2024-03-06T10:52:38;12.40;;;6.95;;
20012;SDS011;76844;42.852;23.042;2024-03-06T10:55:08;13.13;;;6.55;;
20012;SDS011;76844;42.852;23.042;2024-03-06T10:57:40;25.05;;;7.40;;
20012;SDS011;76844;42.852;23.042;2024-03-06T11:00:13;8.85;;;5.55;;
20012;SDS011;76844;42.852;23.042;2024-03-06T11:02:46;12.13;;;6.15;;
20012;SDS011;76844;42.852;23.042;2024-03-06T11:05:19;11.68;;;7.43;;
20012;SDS011;76844;42.852;23.042;2024-03-06T11:07:48;17.45;;;7.22;;
20012;SDS011;76844;42.852;23.042;2024-03-06T11:10:29;9.80;;;6.35;;
20012;SDS011;76844;42.852;23.042;2024-03-06T11:13:00;10.40;;;5.57;;
20012;SDS011;76844;42.852;23.042;2024-03-06T11:15:33;19.25;;;11.70;;
20012;SDS011;76844;42.852;23.042;2024-03-06T11:24:15;10.73;;;6.55;;
20012;SDS011;76844;42.852;23.042;2024-03-06T11:26:48;15.27;;;6.28;;
20012;SDS011;76844;42.852;23.042;2024-03-06T11:29:18;9.45;;;6.60;;
20012;SDS011;76844;42.852;23.042;2024-03-06T11:32:00;11.25;;;7.57;;
20012;SDS011;76844;42.852;23.042;2024-03-06T11:34:34;14.07;;;7.15;;
20012;SDS011;76844;42.852;23.042;2024-03-06T11:37:05;11.55;;;5.88;;
20012;SDS011;76844;42.852;23.042;2024-03-06T11:42:09;12.88;;;7.38;;
20012;SDS011;76844;42.852;23.042;2024-03-06T11:44:51;21.15;;;7.55;;
20012;SDS011;76844;42.852;23.042;2024-03-06T11:47:26;8.65;;;6.18;;
20012;SDS011;76844;42.852;23.042;2024-03-06T11:49:56;13.00;;;6.97;;
20012;SDS011;76844;42.852;23.042;2024-03-06T11:52:27;7.90;;;5.72;;
20012;SDS011;76844;42.852;23.042;2024-03-06T11:54:58;11.75;;;5.75;;
20012;SDS011;76844;42.852;23.042;2024-03-06T11:57:28;12.57;;;7.15;;
20012;SDS011;76844;42.852;23.042;2024-03-06T12:00:02;17.90;;;7.85;;
20012;SDS011;76844;42.852;23.042;2024-03-06T12:02:37;18.77;;;7.90;;
20012;SDS011;76844;42.852;23.042;2024-03-06T12:07:44;20.70;;;7.47;;
20012;SDS011;76844;42.852;23.042;2024-03-06T12:12:45;18.75;;;7.60;;
20012;SDS011;76844;42.852;23.042;2024-03-06T12:15:15;14.07;;;7.78;;
20012;SDS011;76844;42.852;23.042;2024-03-06T12:17:48;14.63;;;7.38;;
20012;SDS011;76844;42.852;23.042;2024-03-06T12:20:19;19.08;;;8.32;;
20012;SDS011;76844;42.852;23.042;2024-03-06T12:22:49;12.93;;;7.47;;
20012;SDS011;76844;42.852;23.042;2024-03-06T12:25:19;15.60;;;7.50;;
20012;SDS011;76844;42.852;23.042;2024-03-06T12:27:49;19.70;;;7.60;;
20012;SDS011;76844;42.852;23.042;2024-03-06T12:30:21;18.15;;;7.40;;
20012;SDS011;76844;42.852;23.042;2024-03-06T12:32:58;18.45;;;8.13;;
20012;SDS011;76844;42.852;23.042;2024-03-06T12:35:31;21.23;;;11.88;;
20012;SDS011;76844;42.852;23.042;2024-03-06T12:53:31;10.70;;;6.20;;
20012;SDS011;76844;42.852;23.042;2024-03-06T12:56:03;9.43;;;6.28;;
20012;SDS011;76844;42.852;23.042;2024-03-06T12:58:33;11.80;;;7.25;;
20012;SDS011;76844;42.852;23.042;2024-03-06T13:01:03;8.38;;;5.95;;
20012;SDS011;76844;42.852;23.042;2024-03-06T13:03:33;8.45;;;6.30;;
20012;SDS011;76844;42.852;23.042;2024-03-06T13:06:03;8.52;;;5.65;;
20012;SDS011;76844;42.852;23.042;2024-03-06T13:08:35;11.65;;;8.23;;
20012;SDS011;76844;42.852;23.042;2024-03-06T13:11:05;30.38;;;9.00;;
20012;SDS011;76844;42.852;23.042;2024-03-06T13:13:37;11.32;;;7.45;;
20012;SDS011;76844;42.852;23.042;2024-03-06T13:16:06;11.07;;;8.40;;
20012;SDS011;76844;42.852;23.042;2024-03-06T13:18:37;20.30;;;12.32;;
20012;SDS011;76844;42.852;23.042;2024-03-06T13:21:07;19.70;;;9.02;;
20012;SDS011;76844;42.852;23.042;2024-03-06T13:23:38;13.88;;;9.13;;
20012;SDS011;76844;42.852;23.042;2024-03-06T13:26:07;15.30;;;9.13;;
20012;SDS011;76844;42.852;23.042;2024-03-06T13:28:37;17.27;;;9.00;;
20012;SDS011;76844;42.852;23.042;2024-03-06T13:31:06;10.15;;;8.10;;
20012;SDS011;76844;42.852;23.042;2024-03-06T13:33:36;11.85;;;8.70;;
20012;SDS011;76844;42.852;23.042;2024-03-06T13:36:06;16.73;;;11.25;;
20012;SDS011;76844;42.852;23.042;2024-03-06T13:38:38;18.15;;;12.73;;
20012;SDS011;76844;42.852;23.042;2024-03-06T13:41:07;15.70;;;10.15;;
20012;SDS011;76844;42.852;23.042;2024-03-06T13:43:37;18.63;;;11.82;;
20012;SDS011;76844;42.852;23.042;2024-03-06T13:46:06;19.15;;;11.32;;
20012;SDS011;76844;42.852;23.042;2024-03-06T13:48:36;19.70;;;10.30;;
20012;SDS011;76844;42.852;23.042;2024-03-06T13:51:06;14.00;;;8.88;;
20012;SDS011;76844;42.852;23.042;2024-03-06T13:53:37;16.30;;;10.60;;
20012;SDS011;76844;42.852;23.042;2024-03-06T13:56:07;17.48;;;9.85;;
20012;SDS011;76844;42.852;23.042;2024-03-06T13:58:37;10.85;;;7.15;;
20012;SDS011;76844;42.852;23.042;2024-03-06T14:01:07;11.25;;;8.38;;
20012;SDS011;76844;42.852;23.042;2024-03-06T14:03:36;11.65;;;8.43;;
20012;SDS011;76844;42.852;23.042;2024-03-06T14:06:06;11.27;;;7.20;;
20012;SDS011;76844;42.852;23.042;2024-03-06T14:08:38;12.85;;;8.48;;
20012;SDS011;76844;42.852;23.042;2024-03-06T14:11:08;13.10;;;9.45;;
20012;SDS011;76844;42.852;23.042;2024-03-06T14:13:38;58.53;;;41.40;;
20012;SDS011;76844;42.852;23.042;2024-03-06T14:16:08;38.30;;;32.38;;
20012;SDS011;76844;42.852;23.042;2024-03-06T14:18:38;33.10;;;25.90;;
20012;SDS011;76844;42.852;23.042;2024-03-06T14:21:07;64.10;;;45.58;;
20012;SDS011;76844;42.852;23.042;2024-03-06T14:23:39;71.60;;;46.38;;
20012;SDS011;76844;42.852;23.042;2024-03-06T14:26:08;63.65;;;39.10;;
20012;SDS011;76844;42.852;23.042;2024-03-06T14:28:39;181.13;;;103.53;;
20012;SDS011;76844;42.852;23.042;2024-03-06T14:31:08;330.98;;;207.30;;
20012;SDS011;76844;42.852;23.042;2024-03-06T14:33:39;104.68;;;61.42;;
20012;SDS011;76844;42.852;23.042;2024-03-06T14:36:08;150.40;;;89.47;;
20012;SDS011;76844;42.852;23.042;2024-03-06T14:38:40;59.47;;;34.28;;
20012;SDS011;76844;42.852;23.042;2024-03-06T14:41:12;67.93;;;30.35;;
20012;SDS011;76844;42.852;23.042;2024-03-06T14:43:42;49.88;;;31.15;;
20012;SDS011;76844;42.852;23.042;2024-03-06T14:46:12;50.22;;;32.38;;
20012;SDS011;76844;42.852;23.042;2024-03-06T14:48:42;13.57;;;10.23;;
20012;SDS011;76844;42.852;23.042;2024-03-06T14:51:12;13.18;;;9.80;;
20012;SDS011;76844;42.852;23.042;2024-03-06T14:53:43;12.05;;;8.75;;
20012;SDS011;76844;42.852;23.042;2024-03-06T14:56:12;19.02;;;8.70;;
20012;SDS011;76844;42.852;23.042;2024-03-06T14:58:42;9.18;;;7.50;;
20012;SDS011;76844;42.852;23.042;2024-03-06T15:01:12;12.52;;;8.10;;
20012;SDS011;76844;42.852;23.042;2024-03-06T15:03:41;10.75;;;7.43;;
20012;SDS011;76844;42.852;23.042;2024-03-06T15:06:11;13.27;;;9.35;;
20012;SDS011;76844;42.852;23.042;2024-03-06T15:08:42;11.27;;;8.85;;